Time;durP1;ratioP1;P1;durP2;ratioP2;P2;SDS_P1;SDS_P2;PMS_P1;PMS_P2;Temp;Humidity;BMP_temperature;BMP_pressure;BME280_temperature;BME280_humidity;BME280_pressure;Samples;Min_cycle;Max_cycle;Signal;HPM_P1;HPM_P2
2023/12/12 00:00:19;;;;;;;1999.90;999.90;;;8.70;99.90;;;;;;5075751;28;20394;-77
2023/12/12 00:02:45;;;;;;;1999.90;999.90;;;8.80;99.90;;;;;;5075594;28;20029;-76
2023/12/12 00:05:10;;;;;;;1999.90;999.90;;;8.70;99.90;;;;;;5093667;28;20047;-76
2023/12/12 00:07:36;;;;;;;1999.90;999.90;;;8.80;99.90;;;;;;5095611;28;20398;-76
2023/12/12 00:10:01;;;;;;;1999.90;999.90;;;8.80;99.90;;;;;;5095894;28;20367;-76
2023/12/12 00:12:27;;;;;;;1999.90;999.90;;;8.80;99.90;;;;;;5095994;28;20359;-75
2023/12/12 00:14:52;;;;;;;1999.90;999.90;;;8.80;99.90;;;;;;5095816;28;20040;-75
2023/12/12 00:17:18;;;;;;;1999.90;999.90;;;8.90;99.90;;;;;;5094609;28;20037;-75
2023/12/12 00:19:43;;;;;;;1999.90;999.90;;;9.00;99.90;;;;;;5095639;28;20045;-75
2023/12/12 00:22:09;;;;;;;1999.90;999.90;;;8.90;99.90;;;;;;5095242;28;20024;-75
2023/12/12 00:24:35;;;;;;;1999.90;999.90;;;9.00;99.90;;;;;;5095740;28;20039;-75
2023/12/12 00:27:00;;;;;;;1999.90;999.90;;;9.00;99.90;;;;;;5095194;27;20029;-75
2023/12/12 00:29:26;;;;;;;1999.90;999.90;;;9.10;99.90;;;;;;5095683;28;20170;-75
2023/12/12 00:31:52;;;;;;;1999.90;999.90;;;9.10;99.90;;;;;;5095192;28;20020;-76
2023/12/12 00:34:17;;;;;;;1999.90;999.90;;;9.10;99.90;;;;;;5095498;28;20036;-75
2023/12/12 00:36:43;;;;;;;1999.90;999.90;;;9.10;99.90;;;;;;5095367;28;20075;-75
2023/12/12 00:39:08;;;;;;;1999.90;999.90;;;9.00;99.90;;;;;;5095518;28;20055;-76
2023/12/12 00:41:36;;;;;;;1999.90;999.90;;;8.90;99.90;;;;;;5095058;28;20102;-75
2023/12/12 00:44:01;;;;;;;1999.90;999.90;;;8.80;99.90;;;;;;5089693;28;20037;-75
2023/12/12 00:46:27;;;;;;;1999.90;999.90;;;8.70;99.90;;;;;;5074784;28;20114;-75
2023/12/12 00:48:53;;;;;;;1999.90;999.90;;;8.70;99.90;;;;;;5075076;28;20033;-75
2023/12/12 00:51:18;;;;;;;1999.90;999.90;;;8.80;99.90;;;;;;5093728;28;20036;-75
2023/12/12 00:53:44;;;;;;;1999.90;999.90;;;8.70;99.90;;;;;;5095305;28;20032;-76
2023/12/12 00:56:09;;;;;;;1999.90;999.90;;;8.70;99.90;;;;;;5095056;28;20037;-75
2023/12/12 00:58:35;;;;;;;1999.90;999.90;;;8.80;99.90;;;;;;5095239;28;20039;-75
2023/12/12 01:01:00;;;;;;;1999.90;999.90;;;8.90;99.90;;;;;;5074887;28;20071;-74
2023/12/12 01:03:27;;;;;;;1999.90;999.90;;;9.00;99.90;;;;;;5074902;28;20029;-75
2023/12/12 01:05:52;;;;;;;1999.90;999.90;;;9.00;99.90;;;;;;5074788;28;20041;-76
2023/12/12 01:08:18;;;;;;;1999.90;999.90;;;9.00;99.90;;;;;;5074501;28;20041;-75
2023/12/12 01:10:43;;;;;;;1999.90;999.90;;;9.00;99.90;;;;;;5072965;28;20028;-75
2023/12/12 01:13:09;;;;;;;1999.90;999.90;;;9.00;99.90;;;;;;5074693;28;20045;-76
2023/12/12 01:15:34;;;;;;;1999.90;999.90;;;9.00;99.90;;;;;;5074704;28;20041;-75
2023/12/12 01:18:00;;;;;;;1999.90;999.90;;;9.10;99.90;;;;;;5074488;28;20028;-75
2023/12/12 01:20:25;;;;;;;1999.90;999.90;;;9.10;99.90;;;;;;5074654;28;20435;-76
2023/12/12 01:22:51;;;;;;;1999.90;999.90;;;9.00;99.90;;;;;;5074608;28;20794;-75
2023/12/12 01:25:16;;;;;;;1999.90;999.90;;;9.00;99.90;;;;;;5078279;28;20398;-75
2023/12/12 01:27:42;;;;;;;1999.90;999.90;;;9.10;99.90;;;;;;5077996;28;20029;-76
2023/12/12 01:30:08;;;;;;;1999.90;999.90;;;9.20;99.90;;;;;;5076627;28;20390;-75
2023/12/12 01:32:33;;;;;;;1999.90;999.90;;;9.10;99.90;;;;;;5078077;28;20024;-75
2023/12/12 01:34:59;;;;;;;1999.90;999.90;;;9.10;99.90;;;;;;5077990;28;20037;-76
2023/12/12 01:37:24;;;;;;;1999.90;999.90;;;9.20;99.90;;;;;;5077995;28;20029;-75
2023/12/12 01:39:50;;;;;;;1999.90;999.90;;;9.20;99.90;;;;;;5076466;28;20032;-75
2023/12/12 01:42:15;;;;;;;1999.90;999.90;;;9.30;99.90;;;;;;5077953;28;20028;-75
2023/12/12 01:44:41;;;;;;;1999.90;999.90;;;9.30;99.90;;;;;;5077957;28;20478;-75
2023/12/12 01:47:08;;;;;;;1999.90;999.90;;;9.20;99.90;;;;;;5077753;28;20115;-75
2023/12/12 01:49:33;;;;;;;1999.90;999.90;;;9.10;99.90;;;;;;5077951;28;20810;-72
2023/12/12 01:51:59;;;;;;;1999.90;999.90;;;9.10;99.90;;;;;;5077632;28;20044;-75
2023/12/12 01:54:25;;;;;;;1999.90;999.90;;;9.10;99.90;;;;;;5077514;28;20120;-75
2023/12/12 01:56:52;;;;;;;1999.90;999.90;;;9.10;99.90;;;;;;5085167;28;20037;-76
2023/12/12 01:59:19;;;;;;;1999.90;999.90;;;9.10;99.90;;;;;;5084517;28;20056;-74
2023/12/12 02:01:47;;;;;;;1999.90;999.90;;;9.10;99.90;;;;;;5077525;28;20029;-75
2023/12/12 02:04:13;;;;;;;1999.90;999.90;;;9.10;99.90;;;;;;5077651;28;20048;-75
2023/12/12 02:06:42;;;;;;;1999.90;999.90;;;9.10;99.90;;;;;;5077363;28;20033;-75
2023/12/12 02:09:08;;;;;;;1999.90;999.90;;;9.20;99.90;;;;;;5076048;28;20095;-75
2023/12/12 02:11:33;;;;;;;1999.90;999.90;;;9.20;99.90;;;;;;5077361;28;20037;-75
2023/12/12 02:13:59;;;;;;;1999.90;999.90;;;9.20;99.90;;;;;;5075878;28;20087;-75
2023/12/12 02:16:25;;;;;;;1999.90;999.90;;;9.20;99.90;;;;;;5077025;28;20033;-75
2023/12/12 02:18:51;;;;;;;1999.90;999.90;;;9.20;99.90;;;;;;5077302;28;20029;-75
2023/12/12 02:21:19;;;;;;;1999.90;999.90;;;9.20;99.90;;;;;;5077332;28;20076;-76
2023/12/12 02:23:47;;;;;;;1999.90;999.90;;;9.20;99.90;;;;;;5077226;28;20041;-75
2023/12/12 02:26:13;;;;;;;1999.90;999.90;;;9.30;99.90;;;;;;5077016;28;20486;-75
2023/12/12 02:28:40;;;;;;;1999.90;999.90;;;9.20;99.90;;;;;;5077283;28;20048;-75
2023/12/12 02:31:05;;;;;;;1999.90;999.90;;;9.20;99.90;;;;;;5075541;28;20029;-75
2023/12/12 02:33:31;;;;;;;1999.90;999.90;;;9.20;99.90;;;;;;5077110;28;20045;-75
2023/12/12 02:35:56;;;;;;;1999.90;999.90;;;9.20;99.90;;;;;;5075351;28;20075;-75
2023/12/12 02:38:22;;;;;;;1999.90;999.90;;;9.20;99.90;;;;;;5077108;28;20033;-76
2023/12/12 02:40:47;;;;;;;1999.90;999.90;;;9.20;99.90;;;;;;5083263;28;20119;-75
2023/12/12 02:43:13;;;;;;;1999.90;999.90;;;9.20;99.90;;;;;;5097074;28;20067;-75
2023/12/12 02:45:39;;;;;;;1999.90;999.90;;;9.30;99.90;;;;;;5097061;28;20490;-77
2023/12/12 02:48:04;;;;;;;1999.90;999.90;;;9.30;99.90;;;;;;5097167;28;20034;-75
2023/12/12 02:50:30;;;;;;;1999.90;999.90;;;9.40;99.90;;;;;;5097039;28;20406;-75
2023/12/12 02:52:55;;;;;;;1999.90;999.90;;;9.30;99.90;;;;;;5089462;28;20040;-75
2023/12/12 02:55:21;;;;;;;1999.90;999.90;;;9.30;99.90;;;;;;5076067;28;20122;-76
2023/12/12 02:57:47;;;;;;;1999.90;999.90;;;9.20;99.90;;;;;;5076344;28;20029;-75
2023/12/12 03:00:13;;;;;;;1999.90;999.90;;;9.20;99.90;;;;;;5076776;28;20540;-75
2023/12/12 03:02:38;;;;;;;1999.90;999.90;;;9.20;99.90;;;;;;5076473;28;20044;-75
2023/12/12 03:05:05;;;;;;;1999.90;999.90;;;9.20;99.90;;;;;;5076679;28;20399;-76
2023/12/12 03:07:30;;;;;;;1999.90;999.90;;;9.20;99.90;;;;;;5089819;28;20082;-76
2023/12/12 03:09:56;;;;;;;1999.90;999.90;;;9.20;99.90;;;;;;5094551;28;20060;-74
2023/12/12 03:12:22;;;;;;;1999.90;999.90;;;9.10;99.90;;;;;;5075590;28;20037;-75
2023/12/12 03:14:47;;;;;;;1999.90;999.90;;;9.00;99.90;;;;;;5076258;28;20032;-75
2023/12/12 03:17:13;;;;;;;1999.90;999.90;;;8.90;99.90;;;;;;5076412;28;20033;-75
2023/12/12 03:19:38;;;;;;;1999.90;999.90;;;8.80;99.90;;;;;;5076681;28;20076;-75
2023/12/12 03:22:04;;;;;;;1999.90;999.90;;;8.70;99.90;;;;;;5096557;28;20032;-75
2023/12/12 03:24:29;;;;;;;1999.90;999.90;;;8.50;99.90;;;;;;5095164;28;20086;-75
2023/12/12 03:26:55;;;;;;;1999.90;999.90;;;8.40;99.90;;;;;;5096460;28;20115;-74
2023/12/12 03:29:21;;;;;;;1999.90;999.90;;;8.40;99.90;;;;;;5095136;28;20037;-75
2023/12/12 03:31:46;;;;;;;1999.90;999.90;;;8.30;99.90;;;;;;5096486;28;20044;-75
2023/12/12 03:34:12;;;;;;;1999.90;999.90;;;8.20;99.90;;;;;;5081209;28;20045;-75
2023/12/12 03:36:42;;;;;;;1999.90;999.90;;;8.20;99.90;;;;;;5075577;28;20548;-75
2023/12/12 03:39:08;;;;;;;1999.90;999.90;;;8.20;99.90;;;;;;5076121;28;20028;-75
2023/12/12 03:41:34;;;;;;;1999.90;999.90;;;8.20;99.90;;;;;;5075897;28;20037;-75
2023/12/12 03:43:59;;;;;;;1999.90;999.90;;;8.20;99.90;;;;;;5075821;28;20033;-76
2023/12/12 03:46:25;;;;;;;1999.90;999.90;;;8.20;99.90;;;;;;5082574;28;20415;-75
2023/12/12 03:48:50;;;;;;;1999.90;999.90;;;8.30;99.90;;;;;;5096399;28;20501;-75
2023/12/12 03:51:16;;;;;;;1999.90;999.90;;;8.30;99.90;;;;;;5096106;28;20116;-76
2023/12/12 03:53:41;;;;;;;1999.90;999.90;;;8.40;99.90;;;;;;5096161;28;20072;-75
2023/12/12 03:56:07;;;;;;;1999.90;999.90;;;8.50;99.90;;;;;;5096036;28;20032;-75
2023/12/12 03:58:34;;;;;;;1999.90;999.90;;;8.60;99.90;;;;;;5083028;28;20139;-75
2023/12/12 04:00:59;;;;;;;1999.90;999.90;;;8.60;99.90;;;;;;5075371;28;20033;-75
2023/12/12 04:03:25;;;;;;;1999.90;999.90;;;8.60;99.90;;;;;;5075889;28;20086;-75
2023/12/12 04:05:50;;;;;;;1999.90;999.90;;;8.60;99.90;;;;;;5075568;28;20044;-75
2023/12/12 04:08:16;;;;;;;1999.90;999.90;;;8.50;99.90;;;;;;5075757;28;20441;-75
2023/12/12 04:10:41;;;;;;;1999.90;999.90;;;8.50;99.90;;;;;;5075433;28;20102;-76
2023/12/12 04:13:07;;;;;;;1999.90;999.90;;;8.50;99.90;;;;;;5073804;28;20044;-75
2023/12/12 04:15:33;;;;;;;1999.90;999.90;;;8.50;99.90;;;;;;5092203;28;20041;-75
2023/12/12 04:17:58;;;;;;;1999.90;999.90;;;8.40;99.90;;;;;;5095712;28;20054;-76
2023/12/12 04:20:24;;;;;;;1999.90;999.90;;;8.30;99.90;;;;;;5095838;28;20494;-75
2023/12/12 04:22:49;;;;;;;1999.90;999.90;;;8.30;99.90;;;;;;5095277;28;20033;-75
2023/12/12 04:25:15;;;;;;;1999.90;999.90;;;8.30;99.90;;;;;;5095380;28;20043;-75
2023/12/12 04:27:41;;;;;;;1999.90;999.90;;;8.20;99.90;;;;;;5087957;28;20040;-75
2023/12/12 04:30:07;;;;;;;1999.90;999.90;;;8.20;99.90;;;;;;5075437;28;20107;-75
2023/12/12 04:32:33;;;;;;;1999.90;999.90;;;8.20;99.90;;;;;;5073648;28;20028;-75
2023/12/12 04:35:04;;;;;;;1999.90;999.90;;;8.20;99.90;;;;;;5086669;28;20040;-75
2023/12/12 04:37:30;;;;;;;1999.90;999.90;;;8.20;99.90;;;;;;5093637;28;20033;-76
2023/12/12 04:39:55;;;;;;;1999.90;999.90;;;8.20;99.90;;;;;;5093957;28;20036;-75
2023/12/12 04:42:23;;;;;;;1999.90;999.90;;;8.20;99.90;;;;;;5088410;28;20091;-75
2023/12/12 04:44:48;;;;;;;1999.90;999.90;;;8.20;99.90;;;;;;5075587;28;20061;-75
2023/12/12 04:47:14;;;;;;;1999.90;999.90;;;8.20;99.90;;;;;;5074876;28;20110;-75
2023/12/12 04:49:39;;;;;;;1999.90;999.90;;;8.20;99.90;;;;;;5075069;28;20044;-75
2023/12/12 04:52:05;;;;;;;1999.90;999.90;;;8.20;99.90;;;;;;5074990;28;20037;-76
2023/12/12 04:54:31;;;;;;;1999.90;999.90;;;8.20;99.90;;;;;;5074944;28;20048;-75
2023/12/12 04:56:56;;;;;;;1999.90;999.90;;;8.20;99.90;;;;;;5074739;28;20434;-75
2023/12/12 04:59:22;;;;;;;1999.90;999.90;;;8.20;99.90;;;;;;5082499;28;20071;-75
2023/12/12 05:01:48;;;;;;;1999.90;999.90;;;8.20;99.90;;;;;;5094962;28;20507;-76
2023/12/12 05:04:14;;;;;;;1999.90;999.90;;;8.20;99.90;;;;;;5095038;28;20028;-76
2023/12/12 05:06:40;;;;;;;1999.90;999.90;;;8.20;99.90;;;;;;5110494;27;20082;-75
2023/12/12 05:09:06;;;;;;;1999.90;999.90;;;8.10;99.90;;;;;;5095034;28;20046;-75
2023/12/12 05:11:31;;;;;;;1999.90;999.90;;;8.10;99.90;;;;;;5094452;28;20037;-75
2023/12/12 05:13:57;;;;;;;1999.90;999.90;;;8.10;99.90;;;;;;5095004;28;20432;-76
2023/12/12 05:16:23;;;;;;;1999.90;999.90;;;8.00;99.90;;;;;;5094831;28;20029;-75
2023/12/12 05:18:48;;;;;;;1999.90;999.90;;;8.00;99.90;;;;;;5077175;28;20044;-74
2023/12/12 05:21:14;;;;;;;1999.90;999.90;;;7.90;99.90;;;;;;5074452;28;20071;-75
2023/12/12 05:23:40;;;;;;;1999.90;999.90;;;7.80;99.90;;;;;;5074626;28;20112;-76
2023/12/12 05:26:05;;;;;;;1999.90;999.90;;;7.70;99.90;;;;;;5074358;28;20028;-75
2023/12/12 05:28:31;;;;;;;1999.90;999.90;;;7.60;99.90;;;;;;5074574;28;20044;-75
2023/12/12 05:30:57;;;;;;;1999.90;999.90;;;7.60;99.90;;;;;;5074428;28;20541;-75
2023/12/12 05:33:23;;;;;;;1999.90;999.90;;;7.50;99.90;;;;;;5074270;28;20128;-75
2023/12/12 05:35:48;;;;;;;1999.90;999.90;;;7.50;99.90;;;;;;5084741;28;20154;-75
2023/12/12 05:38:14;;;;;;;1999.90;999.90;;;7.40;99.90;;;;;;5094763;28;20135;-74
2023/12/12 05:40:39;;;;;;;1999.90;999.90;;;7.30;99.90;;;;;;5094691;28;20068;-76
2023/12/12 05:43:05;;;;;;;1999.90;999.90;;;7.30;99.90;;;;;;5094757;28;20036;-76
2023/12/12 05:45:31;;;;;;;1999.90;999.90;;;7.30;99.90;;;;;;5094824;28;20032;-75
2023/12/12 05:47:57;;;;;;;1999.90;999.90;;;7.30;99.90;;;;;;5092908;28;20048;-75
2023/12/12 05:50:22;;;;;;;1999.90;999.90;;;7.30;99.90;;;;;;5077553;28;20040;-75
2023/12/12 05:52:50;;;;;;;1999.90;999.90;;;7.30;99.90;;;;;;5074167;28;20033;-75
2023/12/12 05:55:16;;;;;;;1999.90;999.90;;;7.40;99.90;;;;;;5074197;28;20044;-75
2023/12/12 05:57:42;;;;;;;1999.90;999.90;;;7.40;99.90;;;;;;5074062;28;20394;-76
2023/12/12 06:00:08;;;;;;;1999.90;999.90;;;7.40;99.90;;;;;;5076504;28;20479;-73
2023/12/12 06:02:33;;;;;;;1999.90;999.90;;;7.50;99.90;;;;;;5094226;28;20043;-74
2023/12/12 06:04:59;;;;;;;1999.90;999.90;;;7.50;99.90;;;;;;5094319;28;20048;-74
2023/12/12 06:07:24;;;;;;;1999.90;999.90;;;7.50;99.90;;;;;;5094078;27;20032;-74
2023/12/12 06:09:50;;;;;;;1999.90;999.90;;;7.50;99.90;;;;;;5096035;28;20029;-74
2023/12/12 06:12:17;;;;;;;1999.90;999.90;;;7.50;99.90;;;;;;5097522;28;20046;-77
2023/12/12 06:14:44;;;;;;;1999.90;999.90;;;7.50;99.90;;;;;;5084669;28;20041;-77
2023/12/12 06:17:11;;;;;;;1999.90;999.90;;;7.60;99.90;;;;;;5097262;28;20091;-77
2023/12/12 06:19:37;;;;;;;1999.90;999.90;;;7.70;99.90;;;;;;5085607;28;20041;-76
2023/12/12 06:22:03;;;;;;;1999.90;999.90;;;7.70;99.90;;;;;;5075158;28;20063;-76
2023/12/12 06:24:28;;;;;;;1999.90;999.90;;;7.80;99.90;;;;;;5077368;28;20039;-77
2023/12/12 06:26:54;;;;;;;1999.90;999.90;;;7.90;99.90;;;;;;5077117;28;20043;-76
2023/12/12 06:29:20;;;;;;;1999.90;999.90;;;7.90;99.90;;;;;;5085405;28;20032;-77
2023/12/12 06:31:45;;;;;;;1999.90;999.90;;;7.90;99.90;;;;;;5082086;28;20040;-76
2023/12/12 06:34:11;;;;;;;1999.90;999.90;;;8.00;99.90;;;;;;5093955;28;20045;-77
2023/12/12 06:36:37;;;;;;;1999.90;999.90;;;8.00;99.90;;;;;;5097096;28;20040;-76
2023/12/12 06:39:03;;;;;;;1999.90;999.90;;;8.00;99.90;;;;;;5111358;27;20402;-76
2023/12/12 06:41:29;;;;;;;1999.90;999.90;;;7.90;99.90;;;;;;5094847;28;20036;-76
2023/12/12 06:43:54;;;;;;;1999.90;999.90;;;7.90;99.90;;;;;;5096001;28;20052;-76
2023/12/12 06:46:20;;;;;;;1999.90;999.90;;;7.90;99.90;;;;;;5085599;28;20106;-78
2023/12/12 06:48:46;;;;;;;1999.90;999.90;;;7.90;99.90;;;;;;5109472;27;20048;-78
2023/12/12 06:51:11;;;;;;;1999.90;999.90;;;7.90;99.90;;;;;;5082855;28;20033;-81
2023/12/12 06:53:37;;;;;;;1999.90;999.90;;;7.90;99.90;;;;;;5086916;28;20044;-78
2023/12/12 06:56:03;;;;;;;1999.90;999.90;;;7.80;99.90;;;;;;5086566;28;20142;-79
2023/12/12 06:58:29;;;;;;;1999.90;999.90;;;7.90;99.90;;;;;;5075651;28;20033;-79
2023/12/12 07:00:55;;;;;;;1999.90;999.90;;;7.90;99.90;;;;;;5076191;28;20040;-79
2023/12/12 07:03:21;;;;;;;1999.90;999.90;;;7.80;99.90;;;;;;5077019;28;20032;-79
2023/12/12 07:05:51;;;;;;;1999.90;999.90;;;7.70;99.90;;;;;;5076907;28;20094;-79
2023/12/12 07:08:19;;;;;;;1999.90;999.90;;;7.50;99.90;;;;;;5076264;28;20075;-79
2023/12/12 07:10:46;;;;;;;1999.90;999.90;;;7.40;99.90;;;;;;5077496;28;20116;-79
2023/12/12 07:13:15;;;;;;;1999.90;999.90;;;7.30;99.90;;;;;;5077320;28;20033;-79
2023/12/12 07:15:40;;;;;;;1999.90;999.90;;;7.20;99.90;;;;;;5077432;28;20056;-79
2023/12/12 07:18:11;;;;;;;1999.90;999.90;;;7.20;99.90;;;;;;5077322;28;20064;-79
2023/12/12 07:20:41;;;;;;;1999.90;999.90;;;7.20;99.90;;;;;;5075873;28;20569;-79
2023/12/12 07:23:07;;;;;;;1999.90;999.90;;;7.30;99.90;;;;;;5077435;28;20036;-79
2023/12/12 07:25:33;;;;;;;1999.90;999.90;;;7.20;99.90;;;;;;5077143;28;20037;-80
2023/12/12 07:28:00;;;;;;;1999.90;999.90;;;7.20;99.90;;;;;;5083627;28;20307;-79
2023/12/12 07:30:27;;;;;;;1999.90;999.90;;;7.30;99.90;;;;;;5092775;28;20398;-79
2023/12/12 07:32:54;;;;;;;1999.90;999.90;;;7.30;99.90;;;;;;5090135;28;20073;-78
2023/12/12 07:35:20;;;;;;;1999.90;999.90;;;7.40;99.90;;;;;;5097133;28;20533;-78
2023/12/12 07:37:45;;;;;;;1999.90;999.90;;;7.40;99.90;;;;;;5098372;28;20136;-79
2023/12/12 07:40:11;;;;;;;1999.90;999.90;;;7.50;99.90;;;;;;5097098;28;20440;-78
2023/12/12 07:42:37;;;;;;;1999.90;999.90;;;7.60;99.90;;;;;;5096707;28;20086;-78
2023/12/12 07:45:03;;;;;;;1999.90;999.90;;;7.70;99.90;;;;;;5095556;28;20030;-78
2023/12/12 07:47:29;;;;;;;1999.90;999.90;;;7.80;99.90;;;;;;5084453;28;20086;-78
2023/12/12 07:49:55;;;;;;;1999.90;999.90;;;7.90;99.90;;;;;;5077029;28;20059;-78
2023/12/12 07:52:21;;;;;;;1999.90;999.90;;;8.00;99.90;;;;;;5076913;28;20033;-78
2023/12/12 07:54:47;;;;;;;1999.90;999.90;;;8.00;99.90;;;;;;5088427;28;20160;-76
2023/12/12 07:57:12;;;;;;;1999.90;999.90;;;8.20;99.90;;;;;;5084180;28;20050;-77
2023/12/12 07:59:38;;;;;;;1999.90;999.90;;;8.20;99.90;;;;;;5089496;28;20064;-77
2023/12/12 08:02:04;;;;;;;1999.90;999.90;;;8.30;99.90;;;;;;5094944;28;20487;-77
2023/12/12 08:04:30;;;;;;;1999.90;999.90;;;8.50;99.90;;;;;;5100045;28;20039;-77
2023/12/12 08:06:56;;;;;;;1999.90;999.90;;;8.50;99.90;;;;;;5095236;27;20032;-77
2023/12/12 08:09:22;;;;;;;1999.90;999.90;;;8.50;99.90;;;;;;5095380;28;20048;-77
2023/12/12 08:11:48;;;;;;;1999.90;999.90;;;8.60;99.90;;;;;;5095479;28;20033;-77
2023/12/12 08:14:14;;;;;;;1999.90;999.90;;;8.60;99.90;;;;;;5095644;28;20048;-77
2023/12/12 08:16:39;;;;;;;1999.90;999.90;;;8.70;99.90;;;;;;5089804;28;20037;-77
2023/12/12 08:19:05;;;;;;;1999.90;999.90;;;8.70;99.90;;;;;;5110955;27;20364;-76
2023/12/12 08:21:30;;;;;;;1999.90;999.90;;;8.80;99.90;;;;;;5095180;28;20549;-77
2023/12/12 08:23:56;;;;;;;1999.90;999.90;;;8.90;99.90;;;;;;5095429;28;20040;-79
2023/12/12 08:26:22;;;;;;;1999.90;999.90;;;9.00;99.90;;;;;;5095879;28;20029;-76
2023/12/12 08:28:48;;;;;;;1999.90;999.90;;;9.10;99.90;;;;;;5090949;28;20454;-76
2023/12/12 08:31:14;;;;;;;1999.90;999.90;;;9.20;99.90;;;;;;5075906;28;20111;-75
2023/12/12 08:33:39;;;;;;;1999.90;999.90;;;9.30;99.90;;;;;;5075142;28;20114;-75
2023/12/12 08:36:06;;;;;;;1999.90;999.90;;;9.40;99.90;;;;;;5080316;28;20101;-76
2023/12/12 08:38:32;;;;;;;1999.90;999.90;;;9.50;99.90;;;;;;5094980;28;20033;-75
2023/12/12 08:40:58;;;;;;;1999.90;999.90;;;9.40;99.90;;;;;;5094870;28;20059;-76
2023/12/12 08:43:23;;;;;;;1999.90;999.90;;;9.40;99.90;;;;;;5080868;28;20049;-76
2023/12/12 08:45:50;;;;;;;1999.90;999.90;;;9.40;99.90;;;;;;5077099;28;20037;-75
2023/12/12 08:48:15;;;;;;;1999.90;999.90;;;9.50;99.90;;;;;;5074738;28;20036;-75
2023/12/12 08:50:41;;;;;;;1999.90;999.90;;;9.60;99.90;;;;;;5081516;28;20041;-75
2023/12/12 08:53:06;;;;;;;1999.90;999.90;;;9.50;99.90;;;;;;5074827;28;20056;-76
2023/12/12 08:55:32;;;;;;;1999.90;999.90;;;9.50;99.90;;;;;;5083496;28;20036;-75
2023/12/12 08:57:57;;;;;;;1999.90;999.90;;;9.50;99.90;;;;;;5087754;28;20039;-75
2023/12/12 09:00:23;;;;;;;1999.90;999.90;;;9.60;99.90;;;;;;5089297;28;20040;-76
2023/12/12 09:02:49;;;;;;;1999.90;999.90;;;9.80;99.90;;;;;;5076903;28;20036;-76
2023/12/12 09:05:15;;;;;;;1999.90;999.90;;;10.00;99.90;;;;;;5083356;28;20413;-75
2023/12/12 09:07:40;;;;;;;1999.90;999.90;;;10.20;99.90;;;;;;5082952;28;20029;-74
2023/12/12 09:10:07;;;;;;;1999.90;999.90;;;10.40;99.90;;;;;;5085691;28;20064;-76
2023/12/12 09:12:33;;;;;;;1999.90;999.90;;;10.40;99.90;;;;;;5084106;28;20037;-75
2023/12/12 09:14:59;;;;;;;1999.90;999.90;;;10.50;99.90;;;;;;5085060;28;20522;-76
2023/12/12 09:17:25;;;;;;;1999.90;999.90;;;10.70;99.90;;;;;;5083119;28;20035;-76
2023/12/12 09:19:50;;;;;;;1999.90;999.90;;;10.80;99.90;;;;;;5091876;28;20033;-75
2023/12/12 09:22:16;;;;;;;1999.90;999.90;;;10.90;99.90;;;;;;5094507;28;20040;-75
2023/12/12 09:24:42;;;;;;;1999.90;999.90;;;11.00;99.90;;;;;;5094762;28;20027;-76
2023/12/12 09:27:07;;;;;;;1999.90;999.90;;;11.00;99.90;;;;;;5092796;28;20072;-76
2023/12/12 09:29:33;;;;;;;1999.90;999.90;;;11.10;99.90;;;;;;5087722;28;20047;-76
2023/12/12 09:31:58;;;;;;;1999.90;999.90;;;11.00;99.90;;;;;;5082792;28;20055;-75
2023/12/12 09:34:24;;;;;;;1999.90;999.90;;;11.00;99.90;;;;;;5087386;28;20047;-76
2023/12/12 09:36:50;;;;;;;1999.90;999.90;;;11.00;99.90;;;;;;5094229;28;20035;-76
2023/12/12 09:39:16;;;;;;;1999.90;999.90;;;11.20;99.90;;;;;;5093347;28;20039;-75
2023/12/12 09:41:45;;;;;;;1999.90;999.90;;;11.20;99.90;;;;;;5073759;28;20037;-75
2023/12/12 09:44:16;;;;;;;1999.90;999.90;;;11.20;99.90;;;;;;5087581;28;20041;-75
2023/12/12 09:46:46;;;;;;;1999.90;999.90;;;11.20;99.90;;;;;;5086539;28;20133;-75
2023/12/12 09:49:13;;;;;;;1999.90;999.90;;;11.00;99.90;;;;;;5090804;28;20041;-76
2023/12/12 09:51:41;;;;;;;1999.90;999.90;;;10.90;99.90;;;;;;5077427;28;20453;-75
2023/12/12 09:54:07;;;;;;;1999.90;999.90;;;10.80;99.90;;;;;;5083993;28;20099;-75
2023/12/12 09:56:37;;;;;;;1999.90;999.90;;;10.80;99.90;;;;;;5086423;28;20039;-75
2023/12/12 09:59:05;;;;;;;1999.90;999.90;;;10.80;99.90;;;;;;5087697;28;20106;-74
2023/12/12 10:01:34;;;;;;;1999.90;999.90;;;10.80;99.90;;;;;;5096027;28;20032;-75
2023/12/12 10:04:05;;;;;;;1999.90;999.90;;;10.80;99.90;;;;;;5079818;28;20033;-75
2023/12/12 10:06:41;;;;;;;1999.90;999.90;;;11.00;99.90;;;;;;5075548;28;20553;-75
2023/12/12 10:09:07;;;;;;;1999.90;999.90;;;11.00;99.90;;;;;;5089788;28;20036;-75
2023/12/12 10:11:33;;;;;;;1999.90;999.90;;;11.00;99.90;;;;;;5094777;28;20450;-75
2023/12/12 10:14:00;;;;;;;1999.90;999.90;;;11.00;99.90;;;;;;5078152;28;20045;-76
2023/12/12 10:16:26;;;;;;;1999.90;999.90;;;11.10;99.90;;;;;;5078075;28;20029;-75
2023/12/12 10:18:52;;;;;;;1999.90;999.90;;;11.00;99.90;;;;;;5076013;28;20041;-75
2023/12/12 10:21:22;;;;;;;1999.90;999.90;;;11.00;99.90;;;;;;5076692;28;20033;-76
2023/12/12 10:23:52;;;;;;;1999.90;999.90;;;11.10;99.90;;;;;;5095539;28;20067;-77
2023/12/12 10:26:27;;;;;;;1999.90;999.90;;;11.10;99.90;;;;;;5083596;28;20029;-76
2023/12/12 10:28:54;;;;;;;1999.90;999.90;;;11.20;99.90;;;;;;5079759;28;20044;-76
2023/12/12 10:31:20;;;;;;;1999.90;999.90;;;11.20;99.90;;;;;;5077229;28;20121;-76
2023/12/12 10:33:46;;;;;;;1999.90;999.90;;;11.20;99.90;;;;;;5075245;28;20457;-76
2023/12/12 10:36:12;;;;;;;1999.90;999.90;;;11.20;99.90;;;;;;5074898;28;20040;-75
2023/12/12 10:38:39;;;;;;;1999.90;999.90;;;11.30;99.90;;;;;;5075890;28;20036;-76
2023/12/12 10:41:15;;;;;;;1999.90;999.90;;;11.40;99.90;;;;;;5076974;28;20029;-76
2023/12/12 10:43:43;;;;;;;1999.90;999.90;;;11.50;99.90;;;;;;5076918;28;20033;-75
2023/12/12 10:46:19;;;;;;;1999.90;999.90;;;11.30;99.90;;;;;;5075131;28;20059;-76
2023/12/12 10:48:46;;;;;;;1999.90;999.90;;;11.30;99.90;;;;;;5076025;28;20033;-75
2023/12/12 10:51:13;;;;;;;1999.90;999.90;;;11.30;99.90;;;;;;5076461;28;20394;-76
2023/12/12 10:53:43;;;;;;;1999.90;999.90;;;11.30;99.90;;;;;;5076618;28;20538;-76
2023/12/12 10:56:12;;;;;;;1999.90;999.90;;;11.30;99.90;;;;;;5078151;28;20028;-75
2023/12/12 10:58:39;;;;;;;1999.90;999.90;;;11.30;99.90;;;;;;5097260;28;20036;-76
2023/12/12 11:01:08;;;;;;;1999.90;999.90;;;11.20;99.90;;;;;;5096591;28;20028;-76
2023/12/12 11:03:35;;;;;;;1999.90;999.90;;;11.10;99.90;;;;;;5096848;28;20032;-75
2023/12/12 11:06:01;;;;;;;1999.90;999.90;;;11.00;99.90;;;;;;5096338;28;20119;-76
2023/12/12 11:08:27;;;;;;;1999.90;999.90;;;10.90;99.90;;;;;;5096792;28;20393;-75
2023/12/12 11:10:54;;;;;;;1999.90;999.90;;;10.80;99.90;;;;;;5095008;28;20120;-76
2023/12/12 11:13:25;;;;;;;1999.90;999.90;;;10.60;99.90;;;;;;5097170;28;20025;-76
2023/12/12 11:15:53;;;;;;;1999.90;999.90;;;10.40;99.90;;;;;;5096520;28;20832;-77
2023/12/12 11:18:20;;;;;;;1999.90;999.90;;;10.30;99.90;;;;;;5084530;28;20052;-75
2023/12/12 11:20:46;;;;;;;1999.90;999.90;;;10.20;99.90;;;;;;5076303;28;20116;-75
2023/12/12 11:23:53;;;;;;;1999.90;999.90;;;10.10;99.90;;;;;;5076679;28;20063;-74
2023/12/12 11:26:21;;;;;;;1999.90;999.90;;;10.10;99.90;;;;;;5101184;28;20054;-75
2023/12/12 11:28:48;;;;;;;1999.90;999.90;;;10.10;99.90;;;;;;5093676;27;20522;-75
2023/12/12 11:31:27;;;;;;;1999.90;999.90;;;10.10;99.90;;;;;;5076893;28;20083;-76
2023/12/12 11:34:09;;;;;;;1999.90;999.90;;;10.00;99.90;;;;;;5085559;28;20502;-76
2023/12/12 11:36:47;;;;;;;1999.90;999.90;;;9.90;99.90;;;;;;5101683;28;20386;-76
2023/12/12 11:39:13;;;;;;;1999.90;999.90;;;9.90;99.90;;;;;;5093169;28;20716;-75
2023/12/12 11:41:38;;;;;;;1999.90;999.90;;;9.80;99.90;;;;;;5090009;28;20071;-76
2023/12/12 11:44:05;;;;;;;1999.90;999.90;;;9.70;99.90;;;;;;5096155;28;20063;-76
2023/12/12 11:46:31;;;;;;;1999.90;999.90;;;9.70;99.90;;;;;;5092729;28;20024;-75
2023/12/12 11:49:18;;;;;;;1999.90;999.90;;;9.70;99.90;;;;;;5081655;28;20036;-76
2023/12/12 11:51:48;;;;;;;1999.90;999.90;;;9.70;99.90;;;;;;5088058;28;20037;-77
2023/12/12 11:54:22;;;;;;;1999.90;999.90;;;9.80;99.90;;;;;;5084524;28;20059;-77
2023/12/12 11:56:54;;;;;;;1999.90;999.90;;;9.80;99.90;;;;;;5086768;28;20402;-75
2023/12/12 11:59:22;;;;;;;1999.90;999.90;;;9.70;99.90;;;;;;5075274;28;20037;-77
2023/12/12 12:01:47;;;;;;;1999.90;999.90;;;9.80;99.90;;;;;;5099962;28;20530;-76